sensor_id;sensor_type;location;lat;lon;timestamp;P1;durP1;ratioP1;P2;durP2;ratioP2
24153;SDS011;12312;53.362;-1.518;2023-06-01T00:00:39;25.98;;;12.20;;
24153;SDS011;12312;53.362;-1.518;2023-06-01T00:03:23;24.42;;;13.18;;
24153;SDS011;12312;53.362;-1.518;2023-06-01T00:06:08;25.97;;;13.93;;
24153;SDS011;12312;53.362;-1.518;2023-06-01T00:08:52;21.60;;;11.98;;
24153;SDS011;12312;53.362;-1.518;2023-06-01T00:11:36;22.35;;;11.45;;
24153;SDS011;12312;53.362;-1.518;2023-06-01T00:14:20;17.90;;;10.85;;
24153;SDS011;12312;53.362;-1.518;2023-06-01T00:17:04;20.33;;;11.02;;
24153;SDS011;12312;53.362;-1.518;2023-06-01T00:19:49;18.52;;;10.52;;
24153;SDS011;12312;53.362;-1.518;2023-06-01T00:22:33;18.75;;;10.65;;
24153;SDS011;12312;53.362;-1.518;2023-06-01T00:25:22;24.30;;;11.40;;
24153;SDS011;12312;53.362;-1.518;2023-06-01T00:28:06;22.27;;;11.60;;
24153;SDS011;12312;53.362;-1.518;2023-06-01T00:30:50;22.75;;;11.93;;
24153;SDS011;12312;53.362;-1.518;2023-06-01T00:33:35;24.27;;;12.00;;
24153;SDS011;12312;53.362;-1.518;2023-06-01T00:36:19;22.92;;;12.65;;
24153;SDS011;12312;53.362;-1.518;2023-06-01T00:39:04;23.75;;;12.45;;
24153;SDS011;12312;53.362;-1.518;2023-06-01T00:41:48;23.13;;;11.63;;
24153;SDS011;12312;53.362;-1.518;2023-06-01T00:44:32;23.38;;;11.50;;
24153;SDS011;12312;53.362;-1.518;2023-06-01T00:47:16;23.50;;;11.70;;
24153;SDS011;12312;53.362;-1.518;2023-06-01T00:50:00;21.27;;;11.20;;
24153;SDS011;12312;53.362;-1.518;2023-06-01T00:52:43;23.15;;;12.25;;
24153;SDS011;12312;53.362;-1.518;2023-06-01T00:55:28;20.50;;;11.07;;
24153;SDS011;12312;53.362;-1.518;2023-06-01T00:58:13;21.58;;;11.70;;
24153;SDS011;12312;53.362;-1.518;2023-06-01T01:00:57;21.50;;;11.70;;
24153;SDS011;12312;53.362;-1.518;2023-06-01T01:03:42;27.83;;;14.07;;
24153;SDS011;12312;53.362;-1.518;2023-06-01T01:06:34;21.27;;;11.07;;
24153;SDS011;12312;53.362;-1.518;2023-06-01T01:12:32;19.77;;;10.60;;
24153;SDS011;12312;53.362;-1.518;2023-06-01T01:18:15;31.05;;;12.10;;
24153;SDS011;12312;53.362;-1.518;2023-06-01T01:21:05;21.85;;;10.80;;
24153;SDS011;12312;53.362;-1.518;2023-06-01T01:30:10;22.23;;;11.48;;
24153;SDS011;12312;53.362;-1.518;2023-06-01T01:32:55;26.58;;;11.77;;
24153;SDS011;12312;53.362;-1.518;2023-06-01T01:35:40;23.17;;;11.55;;
24153;SDS011;12312;53.362;-1.518;2023-06-01T01:38:25;22.88;;;12.25;;
24153;SDS011;12312;53.362;-1.518;2023-06-01T01:41:09;27.65;;;12.90;;
24153;SDS011;12312;53.362;-1.518;2023-06-01T01:43:54;22.90;;;12.27;;
24153;SDS011;12312;53.362;-1.518;2023-06-01T01:46:51;23.98;;;12.75;;
24153;SDS011;12312;53.362;-1.518;2023-06-01T01:49:43;22.02;;;11.85;;
24153;SDS011;12312;53.362;-1.518;2023-06-01T01:52:32;23.77;;;12.75;;
24153;SDS011;12312;53.362;-1.518;2023-06-01T01:55:19;26.55;;;12.75;;
24153;SDS011;12312;53.362;-1.518;2023-06-01T01:58:07;24.08;;;12.07;;
24153;SDS011;12312;53.362;-1.518;2023-06-01T02:00:52;28.15;;;14.23;;
24153;SDS011;12312;53.362;-1.518;2023-06-01T02:03:37;27.42;;;13.07;;
24153;SDS011;12312;53.362;-1.518;2023-06-01T02:06:21;28.33;;;13.70;;
24153;SDS011;12312;53.362;-1.518;2023-06-01T02:09:05;30.27;;;13.68;;
24153;SDS011;12312;53.362;-1.518;2023-06-01T02:11:52;27.05;;;13.80;;
24153;SDS011;12312;53.362;-1.518;2023-06-01T02:14:36;27.80;;;13.63;;
24153;SDS011;12312;53.362;-1.518;2023-06-01T02:17:20;33.17;;;14.65;;
24153;SDS011;12312;53.362;-1.518;2023-06-01T02:20:05;26.30;;;13.40;;
24153;SDS011;12312;53.362;-1.518;2023-06-01T02:22:49;28.17;;;13.43;;
24153;SDS011;12312;53.362;-1.518;2023-06-01T02:25:33;23.58;;;13.60;;
24153;SDS011;12312;53.362;-1.518;2023-06-01T02:28:21;29.58;;;14.23;;
24153;SDS011;12312;53.362;-1.518;2023-06-01T02:31:05;26.73;;;13.82;;
24153;SDS011;12312;53.362;-1.518;2023-06-01T02:33:50;27.85;;;14.38;;
24153;SDS011;12312;53.362;-1.518;2023-06-01T02:36:34;28.13;;;14.48;;
24153;SDS011;12312;53.362;-1.518;2023-06-01T02:39:18;24.02;;;13.05;;
24153;SDS011;12312;53.362;-1.518;2023-06-01T02:42:02;32.50;;;14.13;;
24153;SDS011;12312;53.362;-1.518;2023-06-01T02:44:46;27.52;;;12.88;;
24153;SDS011;12312;53.362;-1.518;2023-06-01T02:47:31;26.08;;;12.82;;
24153;SDS011;12312;53.362;-1.518;2023-06-01T02:50:15;28.05;;;13.43;;
24153;SDS011;12312;53.362;-1.518;2023-06-01T02:52:59;26.40;;;12.70;;
24153;SDS011;12312;53.362;-1.518;2023-06-01T02:55:43;26.85;;;13.23;;
24153;SDS011;12312;53.362;-1.518;2023-06-01T02:58:28;23.38;;;12.38;;
24153;SDS011;12312;53.362;-1.518;2023-06-01T03:01:13;30.27;;;14.15;;
24153;SDS011;12312;53.362;-1.518;2023-06-01T03:03:58;32.70;;;15.57;;
24153;SDS011;12312;53.362;-1.518;2023-06-01T03:06:42;27.08;;;13.35;;
24153;SDS011;12312;53.362;-1.518;2023-06-01T03:09:26;24.75;;;14.32;;
24153;SDS011;12312;53.362;-1.518;2023-06-01T03:12:10;27.90;;;13.18;;
24153;SDS011;12312;53.362;-1.518;2023-06-01T03:14:54;29.88;;;14.98;;
24153;SDS011;12312;53.362;-1.518;2023-06-01T03:17:38;30.88;;;13.43;;
24153;SDS011;12312;53.362;-1.518;2023-06-01T03:20:23;27.67;;;14.25;;
24153;SDS011;12312;53.362;-1.518;2023-06-01T03:23:07;25.63;;;13.45;;
24153;SDS011;12312;53.362;-1.518;2023-06-01T03:25:51;29.92;;;13.25;;
24153;SDS011;12312;53.362;-1.518;2023-06-01T03:28:35;29.00;;;14.02;;
24153;SDS011;12312;53.362;-1.518;2023-06-01T03:31:19;28.70;;;14.20;;
24153;SDS011;12312;53.362;-1.518;2023-06-01T03:34:04;24.85;;;13.57;;
24153;SDS011;12312;53.362;-1.518;2023-06-01T03:36:48;28.77;;;14.70;;
24153;SDS011;12312;53.362;-1.518;2023-06-01T03:39:33;33.40;;;15.65;;
24153;SDS011;12312;53.362;-1.518;2023-06-01T03:42:18;28.23;;;14.52;;
24153;SDS011;12312;53.362;-1.518;2023-06-01T03:45:03;28.15;;;14.98;;
24153;SDS011;12312;53.362;-1.518;2023-06-01T03:47:48;26.88;;;13.70;;
24153;SDS011;12312;53.362;-1.518;2023-06-01T03:50:32;26.20;;;14.65;;
24153;SDS011;12312;53.362;-1.518;2023-06-01T03:53:16;26.52;;;13.25;;
24153;SDS011;12312;53.362;-1.518;2023-06-01T03:56:00;25.00;;;11.27;;
24153;SDS011;12312;53.362;-1.518;2023-06-01T03:58:44;22.05;;;11.32;;
24153;SDS011;12312;53.362;-1.518;2023-06-01T04:01:29;25.55;;;12.38;;
24153;SDS011;12312;53.362;-1.518;2023-06-01T04:04:13;28.77;;;14.35;;
24153;SDS011;12312;53.362;-1.518;2023-06-01T04:07:00;28.55;;;13.93;;
24153;SDS011;12312;53.362;-1.518;2023-06-01T04:09:46;29.17;;;15.00;;
24153;SDS011;12312;53.362;-1.518;2023-06-01T04:12:30;27.73;;;14.75;;
24153;SDS011;12312;53.362;-1.518;2023-06-01T04:15:15;33.67;;;15.52;;
24153;SDS011;12312;53.362;-1.518;2023-06-01T04:18:00;30.60;;;16.15;;
24153;SDS011;12312;53.362;-1.518;2023-06-01T04:20:44;28.92;;;13.90;;
24153;SDS011;12312;53.362;-1.518;2023-06-01T04:23:28;27.13;;;13.80;;
24153;SDS011;12312;53.362;-1.518;2023-06-01T04:26:13;29.45;;;15.00;;
24153;SDS011;12312;53.362;-1.518;2023-06-01T04:28:58;28.98;;;14.68;;
24153;SDS011;12312;53.362;-1.518;2023-06-01T04:31:42;28.10;;;14.00;;
24153;SDS011;12312;53.362;-1.518;2023-06-01T04:34:26;28.42;;;15.10;;
24153;SDS011;12312;53.362;-1.518;2023-06-01T04:37:13;29.17;;;14.65;;
24153;SDS011;12312;53.362;-1.518;2023-06-01T04:39:58;28.88;;;14.55;;
24153;SDS011;12312;53.362;-1.518;2023-06-01T04:42:43;24.23;;;12.75;;
24153;SDS011;12312;53.362;-1.518;2023-06-01T04:45:39;27.80;;;14.10;;
24153;SDS011;12312;53.362;-1.518;2023-06-01T04:48:24;26.55;;;13.30;;
24153;SDS011;12312;53.362;-1.518;2023-06-01T04:51:08;33.03;;;13.65;;
24153;SDS011;12312;53.362;-1.518;2023-06-01T04:53:52;25.73;;;13.00;;
24153;SDS011;12312;53.362;-1.518;2023-06-01T04:56:37;24.60;;;12.30;;
24153;SDS011;12312;53.362;-1.518;2023-06-01T04:59:21;32.20;;;13.93;;
24153;SDS011;12312;53.362;-1.518;2023-06-01T05:02:05;31.67;;;13.48;;
24153;SDS011;12312;53.362;-1.518;2023-06-01T05:04:50;30.35;;;12.85;;
24153;SDS011;12312;53.362;-1.518;2023-06-01T05:07:34;29.30;;;12.57;;
24153;SDS011;12312;53.362;-1.518;2023-06-01T05:10:20;26.15;;;12.95;;
24153;SDS011;12312;53.362;-1.518;2023-06-01T05:13:06;28.20;;;13.85;;
24153;SDS011;12312;53.362;-1.518;2023-06-01T05:15:51;29.70;;;14.52;;
24153;SDS011;12312;53.362;-1.518;2023-06-01T05:18:35;30.80;;;14.48;;
24153;SDS011;12312;53.362;-1.518;2023-06-01T05:21:20;32.20;;;15.55;;
24153;SDS011;12312;53.362;-1.518;2023-06-01T05:24:05;32.50;;;15.02;;
24153;SDS011;12312;53.362;-1.518;2023-06-01T05:26:50;31.98;;;14.77;;
24153;SDS011;12312;53.362;-1.518;2023-06-01T05:29:34;30.65;;;14.60;;
24153;SDS011;12312;53.362;-1.518;2023-06-01T05:32:18;29.02;;;14.93;;
24153;SDS011;12312;53.362;-1.518;2023-06-01T05:35:02;22.92;;;12.80;;
24153;SDS011;12312;53.362;-1.518;2023-06-01T05:37:48;29.08;;;13.43;;
24153;SDS011;12312;53.362;-1.518;2023-06-01T05:40:32;25.88;;;12.88;;
24153;SDS011;12312;53.362;-1.518;2023-06-01T05:43:16;26.33;;;13.80;;
24153;SDS011;12312;53.362;-1.518;2023-06-01T05:46:00;20.73;;;12.23;;
24153;SDS011;12312;53.362;-1.518;2023-06-01T05:48:43;24.65;;;11.30;;
24153;SDS011;12312;53.362;-1.518;2023-06-01T05:51:27;24.10;;;11.70;;
24153;SDS011;12312;53.362;-1.518;2023-06-01T05:54:11;19.75;;;11.13;;
24153;SDS011;12312;53.362;-1.518;2023-06-01T05:56:56;25.63;;;11.65;;
24153;SDS011;12312;53.362;-1.518;2023-06-01T05:59:40;25.08;;;12.68;;
24153;SDS011;12312;53.362;-1.518;2023-06-01T06:02:26;23.00;;;12.57;;
24153;SDS011;12312;53.362;-1.518;2023-06-01T06:05:10;27.33;;;11.77;;
24153;SDS011;12312;53.362;-1.518;2023-06-01T06:07:54;26.63;;;11.88;;
24153;SDS011;12312;53.362;-1.518;2023-06-01T06:10:38;23.48;;;12.32;;
24153;SDS011;12312;53.362;-1.518;2023-06-01T06:13:22;25.70;;;11.57;;
24153;SDS011;12312;53.362;-1.518;2023-06-01T06:16:06;23.45;;;12.05;;
24153;SDS011;12312;53.362;-1.518;2023-06-01T06:18:50;21.08;;;11.45;;
24153;SDS011;12312;53.362;-1.518;2023-06-01T06:21:34;21.45;;;10.70;;
24153;SDS011;12312;53.362;-1.518;2023-06-01T06:24:20;23.42;;;10.98;;
24153;SDS011;12312;53.362;-1.518;2023-06-01T06:27:05;19.25;;;11.65;;
24153;SDS011;12312;53.362;-1.518;2023-06-01T06:29:50;22.08;;;11.40;;
24153;SDS011;12312;53.362;-1.518;2023-06-01T06:32:34;24.58;;;10.40;;
24153;SDS011;12312;53.362;-1.518;2023-06-01T06:35:18;19.88;;;11.18;;
24153;SDS011;12312;53.362;-1.518;2023-06-01T06:38:03;22.15;;;11.52;;
24153;SDS011;12312;53.362;-1.518;2023-06-01T06:40:47;22.33;;;12.23;;
24153;SDS011;12312;53.362;-1.518;2023-06-01T06:43:31;21.48;;;10.98;;
24153;SDS011;12312;53.362;-1.518;2023-06-01T06:46:15;26.23;;;11.02;;
24153;SDS011;12312;53.362;-1.518;2023-06-01T06:48:59;18.40;;;9.88;;
24153;SDS011;12312;53.362;-1.518;2023-06-01T06:51:43;19.88;;;11.27;;
24153;SDS011;12312;53.362;-1.518;2023-06-01T06:54:28;18.55;;;10.25;;
24153;SDS011;12312;53.362;-1.518;2023-06-01T06:57:12;17.73;;;9.90;;
24153;SDS011;12312;53.362;-1.518;2023-06-01T06:59:56;16.65;;;10.20;;
24153;SDS011;12312;53.362;-1.518;2023-06-01T07:02:41;26.02;;;10.60;;
24153;SDS011;12312;53.362;-1.518;2023-06-01T07:05:26;18.13;;;10.25;;
24153;SDS011;12312;53.362;-1.518;2023-06-01T07:08:10;17.52;;;9.35;;
24153;SDS011;12312;53.362;-1.518;2023-06-01T07:10:54;18.40;;;9.95;;
24153;SDS011;12312;53.362;-1.518;2023-06-01T07:13:40;17.15;;;8.73;;
24153;SDS011;12312;53.362;-1.518;2023-06-01T07:16:24;17.50;;;9.68;;
24153;SDS011;12312;53.362;-1.518;2023-06-01T07:19:09;16.38;;;9.93;;
24153;SDS011;12312;53.362;-1.518;2023-06-01T07:21:53;13.77;;;8.80;;
24153;SDS011;12312;53.362;-1.518;2023-06-01T07:24:38;19.25;;;9.35;;
24153;SDS011;12312;53.362;-1.518;2023-06-01T07:27:22;17.67;;;9.35;;
24153;SDS011;12312;53.362;-1.518;2023-06-01T07:30:06;16.80;;;9.02;;
24153;SDS011;12312;53.362;-1.518;2023-06-01T07:35:37;17.83;;;9.32;;
24153;SDS011;12312;53.362;-1.518;2023-06-01T07:38:21;15.15;;;8.77;;
24153;SDS011;12312;53.362;-1.518;2023-06-01T07:41:08;15.90;;;8.50;;
24153;SDS011;12312;53.362;-1.518;2023-06-01T07:43:53;19.90;;;8.35;;
24153;SDS011;12312;53.362;-1.518;2023-06-01T07:46:37;14.40;;;8.18;;
24153;SDS011;12312;53.362;-1.518;2023-06-01T07:49:21;18.67;;;8.82;;
24153;SDS011;12312;53.362;-1.518;2023-06-01T07:52:06;18.73;;;9.40;;
24153;SDS011;12312;53.362;-1.518;2023-06-01T07:54:50;19.98;;;10.10;;
24153;SDS011;12312;53.362;-1.518;2023-06-01T07:57:35;20.88;;;10.25;;
24153;SDS011;12312;53.362;-1.518;2023-06-01T08:00:19;17.52;;;9.68;;
24153;SDS011;12312;53.362;-1.518;2023-06-01T08:03:03;17.33;;;10.05;;
24153;SDS011;12312;53.362;-1.518;2023-06-01T08:05:49;16.88;;;9.38;;
24153;SDS011;12312;53.362;-1.518;2023-06-01T08:08:34;21.77;;;10.30;;
24153;SDS011;12312;53.362;-1.518;2023-06-01T08:11:18;15.25;;;9.25;;
24153;SDS011;12312;53.362;-1.518;2023-06-01T08:14:02;15.65;;;8.70;;
24153;SDS011;12312;53.362;-1.518;2023-06-01T08:16:52;19.63;;;9.38;;
24153;SDS011;12312;53.362;-1.518;2023-06-01T08:19:36;16.95;;;9.57;;
24153;SDS011;12312;53.362;-1.518;2023-06-01T08:22:20;19.42;;;9.55;;
24153;SDS011;12312;53.362;-1.518;2023-06-01T08:25:05;18.60;;;9.00;;
24153;SDS011;12312;53.362;-1.518;2023-06-01T08:27:49;16.05;;;8.30;;
24153;SDS011;12312;53.362;-1.518;2023-06-01T08:30:33;20.33;;;9.05;;
24153;SDS011;12312;53.362;-1.518;2023-06-01T08:33:17;13.75;;;8.40;;
24153;SDS011;12312;53.362;-1.518;2023-06-01T08:36:01;15.40;;;9.15;;
24153;SDS011;12312;53.362;-1.518;2023-06-01T08:38:45;17.23;;;9.38;;
24153;SDS011;12312;53.362;-1.518;2023-06-01T08:41:31;18.23;;;9.23;;
24153;SDS011;12312;53.362;-1.518;2023-06-01T08:44:18;16.50;;;10.05;;
24153;SDS011;12312;53.362;-1.518;2023-06-01T08:47:06;15.18;;;9.57;;
24153;SDS011;12312;53.362;-1.518;2023-06-01T08:49:51;17.77;;;9.25;;
24153;SDS011;12312;53.362;-1.518;2023-06-01T08:52:36;17.00;;;8.63;;
24153;SDS011;12312;53.362;-1.518;2023-06-01T08:55:22;24.35;;;10.48;;
24153;SDS011;12312;53.362;-1.518;2023-06-01T08:58:06;15.40;;;9.30;;
24153;SDS011;12312;53.362;-1.518;2023-06-01T09:00:51;17.10;;;9.40;;
24153;SDS011;12312;53.362;-1.518;2023-06-01T09:03:37;18.85;;;9.65;;
24153;SDS011;12312;53.362;-1.518;2023-06-01T09:06:21;16.88;;;9.60;;
24153;SDS011;12312;53.362;-1.518;2023-06-01T09:09:06;14.45;;;9.13;;
24153;SDS011;12312;53.362;-1.518;2023-06-01T09:18:05;16.20;;;8.70;;
24153;SDS011;12312;53.362;-1.518;2023-06-01T09:20:51;15.77;;;10.10;;
24153;SDS011;12312;53.362;-1.518;2023-06-01T09:26:25;14.43;;;8.30;;
24153;SDS011;12312;53.362;-1.518;2023-06-01T09:29:10;22.50;;;10.25;;
24153;SDS011;12312;53.362;-1.518;2023-06-01T09:31:55;15.75;;;8.77;;
24153;SDS011;12312;53.362;-1.518;2023-06-01T09:34:43;16.48;;;8.07;;
24153;SDS011;12312;53.362;-1.518;2023-06-01T09:37:29;19.90;;;8.15;;
24153;SDS011;12312;53.362;-1.518;2023-06-01T09:40:17;14.13;;;8.35;;
24153;SDS011;12312;53.362;-1.518;2023-06-01T09:43:02;13.00;;;8.90;;
24153;SDS011;12312;53.362;-1.518;2023-06-01T09:45:47;13.13;;;8.10;;
24153;SDS011;12312;53.362;-1.518;2023-06-01T09:48:48;16.02;;;8.50;;
24153;SDS011;12312;53.362;-1.518;2023-06-01T09:52:13;16.73;;;8.82;;
24153;SDS011;12312;53.362;-1.518;2023-06-01T09:55:07;11.75;;;7.38;;
24153;SDS011;12312;53.362;-1.518;2023-06-01T10:01:04;12.40;;;6.93;;
24153;SDS011;12312;53.362;-1.518;2023-06-01T10:03:54;10.05;;;6.10;;
24153;SDS011;12312;53.362;-1.518;2023-06-01T10:06:39;10.23;;;6.03;;
24153;SDS011;12312;53.362;-1.518;2023-06-01T10:09:25;12.93;;;6.80;;
24153;SDS011;12312;53.362;-1.518;2023-06-01T10:12:09;8.45;;;5.50;;
24153;SDS011;12312;53.362;-1.518;2023-06-01T10:14:54;9.05;;;4.72;;
24153;SDS011;12312;53.362;-1.518;2023-06-01T10:17:39;9.18;;;4.80;;
24153;SDS011;12312;53.362;-1.518;2023-06-01T10:20:26;10.00;;;4.25;;
24153;SDS011;12312;53.362;-1.518;2023-06-01T10:23:10;8.18;;;4.70;;
24153;SDS011;12312;53.362;-1.518;2023-06-01T10:25:53;7.57;;;3.80;;
24153;SDS011;12312;53.362;-1.518;2023-06-01T10:28:40;7.85;;;3.47;;
24153;SDS011;12312;53.362;-1.518;2023-06-01T10:34:36;5.72;;;3.38;;
24153;SDS011;12312;53.362;-1.518;2023-06-01T10:37:21;5.78;;;3.08;;
24153;SDS011;12312;53.362;-1.518;2023-06-01T10:43:05;6.35;;;3.58;;
24153;SDS011;12312;53.362;-1.518;2023-06-01T10:45:51;6.03;;;3.38;;
24153;SDS011;12312;53.362;-1.518;2023-06-01T10:48:55;5.20;;;3.30;;
24153;SDS011;12312;53.362;-1.518;2023-06-01T10:51:40;7.05;;;3.13;;
24153;SDS011;12312;53.362;-1.518;2023-06-01T10:54:28;8.00;;;2.85;;
24153;SDS011;12312;53.362;-1.518;2023-06-01T10:57:20;8.25;;;3.17;;
24153;SDS011;12312;53.362;-1.518;2023-06-01T11:00:21;4.50;;;2.97;;
24153;SDS011;12312;53.362;-1.518;2023-06-01T11:03:07;4.80;;;2.67;;
24153;SDS011;12312;53.362;-1.518;2023-06-01T11:05:52;6.95;;;3.60;;
24153;SDS011;12312;53.362;-1.518;2023-06-01T11:11:55;7.28;;;3.55;;
24153;SDS011;12312;53.362;-1.518;2023-06-01T11:14:33;7.10;;;3.85;;
24153;SDS011;12312;53.362;-1.518;2023-06-01T11:17:25;6.97;;;3.65;;
24153;SDS011;12312;53.362;-1.518;2023-06-01T11:20:12;9.73;;;4.00;;
24153;SDS011;12312;53.362;-1.518;2023-06-01T11:22:57;8.80;;;4.28;;
24153;SDS011;12312;53.362;-1.518;2023-06-01T11:25:41;7.07;;;3.20;;
24153;SDS011;12312;53.362;-1.518;2023-06-01T11:28:25;6.38;;;3.72;;
24153;SDS011;12312;53.362;-1.518;2023-06-01T11:31:15;8.90;;;3.95;;
24153;SDS011;12312;53.362;-1.518;2023-06-01T11:33:59;5.93;;;3.63;;
24153;SDS011;12312;53.362;-1.518;2023-06-01T11:36:48;9.25;;;4.35;;
24153;SDS011;12312;53.362;-1.518;2023-06-01T11:39:38;7.90;;;4.97;;
24153;SDS011;12312;53.362;-1.518;2023-06-01T11:42:34;9.23;;;4.80;;
24153;SDS011;12312;53.362;-1.518;2023-06-01T11:45:18;7.10;;;4.10;;
24153;SDS011;12312;53.362;-1.518;2023-06-01T11:48:09;11.52;;;4.05;;
24153;SDS011;12312;53.362;-1.518;2023-06-01T11:50:55;7.05;;;3.45;;
24153;SDS011;12312;53.362;-1.518;2023-06-01T11:53:45;8.55;;;4.35;;
24153;SDS011;12312;53.362;-1.518;2023-06-01T11:56:30;6.13;;;4.10;;
24153;SDS011;12312;53.362;-1.518;2023-06-01T12:01:59;5.93;;;3.75;;
24153;SDS011;12312;53.362;-1.518;2023-06-01T12:04:43;8.43;;;3.75;;
24153;SDS011;12312;53.362;-1.518;2023-06-01T12:10:30;9.93;;;4.30;;
24153;SDS011;12312;53.362;-1.518;2023-06-01T12:13:15;7.95;;;4.00;;
24153;SDS011;12312;53.362;-1.518;2023-06-01T12:15:59;9.50;;;4.28;;
24153;SDS011;12312;53.362;-1.518;2023-06-01T12:18:43;15.18;;;4.28;;
24153;SDS011;12312;53.362;-1.518;2023-06-01T12:21:28;6.22;;;4.05;;
24153;SDS011;12312;53.362;-1.518;2023-06-01T12:24:12;7.47;;;4.72;;
24153;SDS011;12312;53.362;-1.518;2023-06-01T12:26:57;9.05;;;4.60;;
24153;SDS011;12312;53.362;-1.518;2023-06-01T12:29:45;10.80;;;4.10;;
24153;SDS011;12312;53.362;-1.518;2023-06-01T12:32:37;10.15;;;4.72;;
24153;SDS011;12312;53.362;-1.518;2023-06-01T12:35:21;7.22;;;4.70;;
24153;SDS011;12312;53.362;-1.518;2023-06-01T12:38:07;7.90;;;3.92;;
24153;SDS011;12312;53.362;-1.518;2023-06-01T12:41:09;6.85;;;4.40;;
24153;SDS011;12312;53.362;-1.518;2023-06-01T12:43:56;7.20;;;4.72;;
24153;SDS011;12312;53.362;-1.518;2023-06-01T12:46:41;12.95;;;4.97;;
24153;SDS011;12312;53.362;-1.518;2023-06-01T12:49:25;6.78;;;4.53;;
24153;SDS011;12312;53.362;-1.518;2023-06-01T12:52:09;9.13;;;4.85;;
24153;SDS011;12312;53.362;-1.518;2023-06-01T12:54:53;6.88;;;4.00;;
24153;SDS011;12312;53.362;-1.518;2023-06-01T12:57:37;7.10;;;4.80;;
24153;SDS011;12312;53.362;-1.518;2023-06-01T13:00:21;6.63;;;4.35;;
24153;SDS011;12312;53.362;-1.518;2023-06-01T13:03:05;7.25;;;4.20;;
24153;SDS011;12312;53.362;-1.518;2023-06-01T13:05:50;7.18;;;4.22;;
24153;SDS011;12312;53.362;-1.518;2023-06-01T13:08:34;5.55;;;3.67;;
24153;SDS011;12312;53.362;-1.518;2023-06-01T13:11:18;8.68;;;4.15;;
24153;SDS011;12312;53.362;-1.518;2023-06-01T13:14:02;9.27;;;4.15;;
24153;SDS011;12312;53.362;-1.518;2023-06-01T13:16:46;7.32;;;4.60;;
24153;SDS011;12312;53.362;-1.518;2023-06-01T13:19:30;10.13;;;4.20;;
24153;SDS011;12312;53.362;-1.518;2023-06-01T13:22:14;7.88;;;3.47;;
24153;SDS011;12312;53.362;-1.518;2023-06-01T13:24:59;7.95;;;4.25;;
24153;SDS011;12312;53.362;-1.518;2023-06-01T13:27:44;8.73;;;4.40;;
24153;SDS011;12312;53.362;-1.518;2023-06-01T13:30:29;8.88;;;5.05;;
24153;SDS011;12312;53.362;-1.518;2023-06-01T13:33:13;11.60;;;5.35;;
24153;SDS011;12312;53.362;-1.518;2023-06-01T13:35:58;9.13;;;4.07;;
24153;SDS011;12312;53.362;-1.518;2023-06-01T13:38:42;8.23;;;4.40;;
24153;SDS011;12312;53.362;-1.518;2023-06-01T13:41:26;6.60;;;3.88;;
24153;SDS011;12312;53.362;-1.518;2023-06-01T13:44:10;5.80;;;4.30;;
24153;SDS011;12312;53.362;-1.518;2023-06-01T13:46:54;5.88;;;3.80;;
24153;SDS011;12312;53.362;-1.518;2023-06-01T13:49:39;5.78;;;3.95;;
24153;SDS011;12312;53.362;-1.518;2023-06-01T13:52:23;6.07;;;3.90;;
24153;SDS011;12312;53.362;-1.518;2023-06-01T13:55:09;8.18;;;3.78;;
24153;SDS011;12312;53.362;-1.518;2023-06-01T13:57:53;6.00;;;3.78;;
24153;SDS011;12312;53.362;-1.518;2023-06-01T14:00:37;5.55;;;3.72;;
24153;SDS011;12312;53.362;-1.518;2023-06-01T14:03:21;7.57;;;3.75;;
24153;SDS011;12312;53.362;-1.518;2023-06-01T14:06:05;6.97;;;4.32;;
24153;SDS011;12312;53.362;-1.518;2023-06-01T14:08:50;13.05;;;4.68;;
24153;SDS011;12312;53.362;-1.518;2023-06-01T14:11:34;8.75;;;4.88;;
24153;SDS011;12312;53.362;-1.518;2023-06-01T14:14:18;8.65;;;4.35;;
24153;SDS011;12312;53.362;-1.518;2023-06-01T14:17:02;7.25;;;4.72;;
24153;SDS011;12312;53.362;-1.518;2023-06-01T14:19:46;7.15;;;4.32;;
24153;SDS011;12312;53.362;-1.518;2023-06-01T14:22:30;9.15;;;4.43;;
24153;SDS011;12312;53.362;-1.518;2023-06-01T14:25:14;7.60;;;4.05;;
24153;SDS011;12312;53.362;-1.518;2023-06-01T14:27:58;5.82;;;4.35;;
24153;SDS011;12312;53.362;-1.518;2023-06-01T14:30:41;9.77;;;5.32;;
24153;SDS011;12312;53.362;-1.518;2023-06-01T14:33:26;9.40;;;5.05;;
24153;SDS011;12312;53.362;-1.518;2023-06-01T14:36:09;7.20;;;4.97;;
24153;SDS011;12312;53.362;-1.518;2023-06-01T14:38:54;6.30;;;4.22;;
24153;SDS011;12312;53.362;-1.518;2023-06-01T14:41:37;4.53;;;3.22;;
24153;SDS011;12312;53.362;-1.518;2023-06-01T14:44:22;7.88;;;3.30;;
24153;SDS011;12312;53.362;-1.518;2023-06-01T14:47:06;5.90;;;2.67;;
24153;SDS011;12312;53.362;-1.518;2023-06-01T14:49:50;4.47;;;2.80;;
24153;SDS011;12312;53.362;-1.518;2023-06-01T14:52:35;4.65;;;2.70;;
24153;SDS011;12312;53.362;-1.518;2023-06-01T14:55:19;8.00;;;2.40;;
24153;SDS011;12312;53.362;-1.518;2023-06-01T14:58:03;5.32;;;2.10;;
24153;SDS011;12312;53.362;-1.518;2023-06-01T15:00:47;4.53;;;1.90;;
24153;SDS011;12312;53.362;-1.518;2023-06-01T15:03:32;7.18;;;2.38;;
24153;SDS011;12312;53.362;-1.518;2023-06-01T15:06:16;5.32;;;2.35;;
24153;SDS011;12312;53.362;-1.518;2023-06-01T15:09:00;5.53;;;2.45;;
24153;SDS011;12312;53.362;-1.518;2023-06-01T15:11:44;8.30;;;2.70;;
24153;SDS011;12312;53.362;-1.518;2023-06-01T15:14:28;5.25;;;2.55;;
24153;SDS011;12312;53.362;-1.518;2023-06-01T15:17:12;9.27;;;2.65;;
24153;SDS011;12312;53.362;-1.518;2023-06-01T15:19:56;7.70;;;2.80;;
24153;SDS011;12312;53.362;-1.518;2023-06-01T15:22:40;5.68;;;2.60;;
24153;SDS011;12312;53.362;-1.518;2023-06-01T15:25:24;5.50;;;2.85;;
24153;SDS011;12312;53.362;-1.518;2023-06-01T15:28:08;6.90;;;3.00;;
24153;SDS011;12312;53.362;-1.518;2023-06-01T15:30:52;9.57;;;3.15;;
24153;SDS011;12312;53.362;-1.518;2023-06-01T15:33:36;8.80;;;2.90;;
24153;SDS011;12312;53.362;-1.518;2023-06-01T15:36:23;4.55;;;2.65;;
24153;SDS011;12312;53.362;-1.518;2023-06-01T15:39:08;4.15;;;2.40;;
24153;SDS011;12312;53.362;-1.518;2023-06-01T15:41:53;8.65;;;3.28;;
24153;SDS011;12312;53.362;-1.518;2023-06-01T15:44:41;7.15;;;3.25;;
24153;SDS011;12312;53.362;-1.518;2023-06-01T15:47:26;9.68;;;3.20;;
24153;SDS011;12312;53.362;-1.518;2023-06-01T15:50:10;11.80;;;3.92;;
24153;SDS011;12312;53.362;-1.518;2023-06-01T15:52:54;9.23;;;4.88;;
24153;SDS011;12312;53.362;-1.518;2023-06-01T15:55:38;13.40;;;3.80;;
24153;SDS011;12312;53.362;-1.518;2023-06-01T15:58:22;10.52;;;3.53;;
24153;SDS011;12312;53.362;-1.518;2023-06-01T16:01:07;10.88;;;3.95;;
24153;SDS011;12312;53.362;-1.518;2023-06-01T16:03:51;9.85;;;4.68;;
24153;SDS011;12312;53.362;-1.518;2023-06-01T16:06:35;10.50;;;4.13;;
24153;SDS011;12312;53.362;-1.518;2023-06-01T16:09:19;14.55;;;6.03;;
24153;SDS011;12312;53.362;-1.518;2023-06-01T16:12:03;9.68;;;5.28;;
24153;SDS011;12312;53.362;-1.518;2023-06-01T16:14:48;15.75;;;5.45;;
24153;SDS011;12312;53.362;-1.518;2023-06-01T16:17:33;12.25;;;5.50;;
24153;SDS011;12312;53.362;-1.518;2023-06-01T16:20:17;9.75;;;4.50;;
24153;SDS011;12312;53.362;-1.518;2023-06-01T16:23:01;11.95;;;4.40;;
24153;SDS011;12312;53.362;-1.518;2023-06-01T16:25:45;11.80;;;5.20;;
24153;SDS011;12312;53.362;-1.518;2023-06-01T16:28:29;9.68;;;4.18;;
24153;SDS011;12312;53.362;-1.518;2023-06-01T16:31:13;8.75;;;4.03;;
24153;SDS011;12312;53.362;-1.518;2023-06-01T16:33:57;14.07;;;4.60;;
24153;SDS011;12312;53.362;-1.518;2023-06-01T16:36:41;11.30;;;4.40;;
24153;SDS011;12312;53.362;-1.518;2023-06-01T16:39:25;12.30;;;3.88;;
24153;SDS011;12312;53.362;-1.518;2023-06-01T16:42:09;12.40;;;3.90;;
24153;SDS011;12312;53.362;-1.518;2023-06-01T16:44:53;15.45;;;4.20;;
24153;SDS011;12312;53.362;-1.518;2023-06-01T16:47:37;11.27;;;4.22;;